sensor_id;sensor_type;location;lat;lon;timestamp;temperature;humidity
19945;DHT22;10134;50.952;6.930;2023-04-25T00:00:48;9.40;99.90
19945;DHT22;10134;50.952;6.930;2023-04-25T00:03:16;9.30;99.90
19945;DHT22;10134;50.952;6.930;2023-04-25T00:05:46;9.40;99.90
19945;DHT22;10134;50.952;6.930;2023-04-25T00:08:13;9.40;99.90
19945;DHT22;10134;50.952;6.930;2023-04-25T00:10:41;9.40;99.90
19945;DHT22;10134;50.952;6.930;2023-04-25T00:13:08;9.40;99.90
19945;DHT22;10134;50.952;6.930;2023-04-25T00:15:38;9.40;99.90
19945;DHT22;10134;50.952;6.930;2023-04-25T00:18:09;9.40;99.90
19945;DHT22;10134;50.952;6.930;2023-04-25T00:20:36;9.40;99.90
19945;DHT22;10134;50.952;6.930;2023-04-25T00:23:05;9.40;99.90
19945;DHT22;10134;50.952;6.930;2023-04-25T00:25:32;9.40;99.90
19945;DHT22;10134;50.952;6.930;2023-04-25T00:28:00;9.40;99.90
19945;DHT22;10134;50.952;6.930;2023-04-25T00:30:27;9.40;99.90
19945;DHT22;10134;50.952;6.930;2023-04-25T00:32:54;9.20;99.90
19945;DHT22;10134;50.952;6.930;2023-04-25T00:35:22;9.20;99.90
19945;DHT22;10134;50.952;6.930;2023-04-25T00:37:49;9.20;99.90
19945;DHT22;10134;50.952;6.930;2023-04-25T00:40:17;9.20;99.90
19945;DHT22;10134;50.952;6.930;2023-04-25T00:42:45;9.30;99.90
19945;DHT22;10134;50.952;6.930;2023-04-25T00:45:14;9.20;99.90
19945;DHT22;10134;50.952;6.930;2023-04-25T00:47:43;9.20;99.90
19945;DHT22;10134;50.952;6.930;2023-04-25T00:50:11;9.10;99.90
19945;DHT22;10134;50.952;6.930;2023-04-25T00:52:42;9.10;99.90
19945;DHT22;10134;50.952;6.930;2023-04-25T00:55:10;9.10;99.90
19945;DHT22;10134;50.952;6.930;2023-04-25T00:57:39;9.00;99.90
19945;DHT22;10134;50.952;6.930;2023-04-25T01:00:08;9.00;99.90
19945;DHT22;10134;50.952;6.930;2023-04-25T01:02:37;9.00;99.90
19945;DHT22;10134;50.952;6.930;2023-04-25T01:05:05;9.00;99.90
19945;DHT22;10134;50.952;6.930;2023-04-25T01:07:32;9.00;99.90
19945;DHT22;10134;50.952;6.930;2023-04-25T01:10:00;8.90;99.90
19945;DHT22;10134;50.952;6.930;2023-04-25T01:12:28;8.90;99.90
19945;DHT22;10134;50.952;6.930;2023-04-25T01:14:55;8.90;99.90
19945;DHT22;10134;50.952;6.930;2023-04-25T01:17:25;8.80;99.90
19945;DHT22;10134;50.952;6.930;2023-04-25T01:19:52;8.70;99.90
19945;DHT22;10134;50.952;6.930;2023-04-25T01:22:20;8.80;99.90
19945;DHT22;10134;50.952;6.930;2023-04-25T01:24:48;8.70;99.90
19945;DHT22;10134;50.952;6.930;2023-04-25T01:27:15;8.70;99.90
19945;DHT22;10134;50.952;6.930;2023-04-25T01:29:43;8.70;99.90
19945;DHT22;10134;50.952;6.930;2023-04-25T01:32:11;8.70;99.90
19945;DHT22;10134;50.952;6.930;2023-04-25T01:34:38;8.60;99.90
19945;DHT22;10134;50.952;6.930;2023-04-25T01:37:06;8.50;99.90
19945;DHT22;10134;50.952;6.930;2023-04-25T01:39:33;8.60;99.90
19945;DHT22;10134;50.952;6.930;2023-04-25T01:42:00;8.50;99.90
19945;DHT22;10134;50.952;6.930;2023-04-25T01:44:30;8.50;99.90
19945;DHT22;10134;50.952;6.930;2023-04-25T01:46:57;8.50;99.90
19945;DHT22;10134;50.952;6.930;2023-04-25T01:49:25;8.40;99.90
19945;DHT22;10134;50.952;6.930;2023-04-25T01:51:53;8.40;99.90
19945;DHT22;10134;50.952;6.930;2023-04-25T01:54:21;8.40;99.90
19945;DHT22;10134;50.952;6.930;2023-04-25T01:56:52;8.40;99.90
19945;DHT22;10134;50.952;6.930;2023-04-25T01:59:21;8.30;99.90
19945;DHT22;10134;50.952;6.930;2023-04-25T02:02:07;8.20;99.90
19945;DHT22;10134;50.952;6.930;2023-04-25T02:04:35;8.20;99.90
19945;DHT22;10134;50.952;6.930;2023-04-25T02:07:03;8.20;99.90
19945;DHT22;10134;50.952;6.930;2023-04-25T02:09:46;8.10;99.90
19945;DHT22;10134;50.952;6.930;2023-04-25T02:12:13;8.10;99.90
19945;DHT22;10134;50.952;6.930;2023-04-25T02:14:59;8.10;99.90
19945;DHT22;10134;50.952;6.930;2023-04-25T02:17:37;8.10;99.90
19945;DHT22;10134;50.952;6.930;2023-04-25T02:20:05;8.10;99.90
19945;DHT22;10134;50.952;6.930;2023-04-25T02:22:32;8.10;99.90
19945;DHT22;10134;50.952;6.930;2023-04-25T02:25:01;8.10;99.90
19945;DHT22;10134;50.952;6.930;2023-04-25T02:27:28;8.10;99.90
19945;DHT22;10134;50.952;6.930;2023-04-25T02:29:56;8.10;99.90
19945;DHT22;10134;50.952;6.930;2023-04-25T02:32:23;8.10;99.90
19945;DHT22;10134;50.952;6.930;2023-04-25T02:34:51;8.10;99.90
19945;DHT22;10134;50.952;6.930;2023-04-25T02:37:19;8.10;99.90
19945;DHT22;10134;50.952;6.930;2023-04-25T02:39:46;8.10;99.90
19945;DHT22;10134;50.952;6.930;2023-04-25T02:42:14;8.10;99.90
19945;DHT22;10134;50.952;6.930;2023-04-25T02:44:41;8.10;99.90
19945;DHT22;10134;50.952;6.930;2023-04-25T02:47:08;8.10;99.90
19945;DHT22;10134;50.952;6.930;2023-04-25T02:49:36;8.10;99.90
19945;DHT22;10134;50.952;6.930;2023-04-25T02:52:03;8.20;99.90
19945;DHT22;10134;50.952;6.930;2023-04-25T02:54:31;8.20;99.90
19945;DHT22;10134;50.952;6.930;2023-04-25T02:56:59;8.20;99.90
19945;DHT22;10134;50.952;6.930;2023-04-25T02:59:31;8.10;99.90
19945;DHT22;10134;50.952;6.930;2023-04-25T03:01:58;8.20;99.90
19945;DHT22;10134;50.952;6.930;2023-04-25T03:04:26;8.10;99.90
19945;DHT22;10134;50.952;6.930;2023-04-25T03:06:53;8.10;99.90
19945;DHT22;10134;50.952;6.930;2023-04-25T03:09:21;8.20;99.90
19945;DHT22;10134;50.952;6.930;2023-04-25T03:11:49;8.10;99.90
19945;DHT22;10134;50.952;6.930;2023-04-25T03:14:17;8.20;99.90
19945;DHT22;10134;50.952;6.930;2023-04-25T03:16:44;8.10;99.90
19945;DHT22;10134;50.952;6.930;2023-04-25T03:19:12;8.10;99.90
19945;DHT22;10134;50.952;6.930;2023-04-25T03:21:39;8.10;99.90
19945;DHT22;10134;50.952;6.930;2023-04-25T03:24:06;8.10;99.90
19945;DHT22;10134;50.952;6.930;2023-04-25T03:26:34;8.10;99.90
19945;DHT22;10134;50.952;6.930;2023-04-25T03:29:01;8.20;99.90
19945;DHT22;10134;50.952;6.930;2023-04-25T03:31:29;8.10;99.90
19945;DHT22;10134;50.952;6.930;2023-04-25T03:33:57;8.20;99.90
19945;DHT22;10134;50.952;6.930;2023-04-25T03:36:25;8.20;99.90
19945;DHT22;10134;50.952;6.930;2023-04-25T03:38:52;8.20;99.90
19945;DHT22;10134;50.952;6.930;2023-04-25T03:41:21;8.20;99.90
19945;DHT22;10134;50.952;6.930;2023-04-25T03:43:53;8.20;99.90
19945;DHT22;10134;50.952;6.930;2023-04-25T03:46:20;8.20;99.90
19945;DHT22;10134;50.952;6.930;2023-04-25T03:48:48;8.20;99.90
19945;DHT22;10134;50.952;6.930;2023-04-25T03:51:21;8.20;99.90
19945;DHT22;10134;50.952;6.930;2023-04-25T03:53:49;8.20;99.90
19945;DHT22;10134;50.952;6.930;2023-04-25T03:56:19;8.30;99.90
19945;DHT22;10134;50.952;6.930;2023-04-25T03:58:53;8.30;99.90
19945;DHT22;10134;50.952;6.930;2023-04-25T04:01:23;8.30;99.90
19945;DHT22;10134;50.952;6.930;2023-04-25T04:03:52;8.30;99.90
19945;DHT22;10134;50.952;6.930;2023-04-25T04:06:20;8.30;99.90
19945;DHT22;10134;50.952;6.930;2023-04-25T04:08:52;8.30;99.90
19945;DHT22;10134;50.952;6.930;2023-04-25T04:11:20;8.30;99.90
19945;DHT22;10134;50.952;6.930;2023-04-25T04:13:47;8.30;99.90
19945;DHT22;10134;50.952;6.930;2023-04-25T04:16:15;8.30;99.90
19945;DHT22;10134;50.952;6.930;2023-04-25T04:18:45;8.30;99.90
19945;DHT22;10134;50.952;6.930;2023-04-25T04:21:12;8.30;99.90
19945;DHT22;10134;50.952;6.930;2023-04-25T04:23:40;8.30;99.90
19945;DHT22;10134;50.952;6.930;2023-04-25T04:26:09;8.30;99.90
19945;DHT22;10134;50.952;6.930;2023-04-25T04:28:59;8.30;99.90
19945;DHT22;10134;50.952;6.930;2023-04-25T04:31:45;8.30;99.90
19945;DHT22;10134;50.952;6.930;2023-04-25T04:34:12;8.30;99.90
19945;DHT22;10134;50.952;6.930;2023-04-25T04:36:40;8.30;99.90
19945;DHT22;10134;50.952;6.930;2023-04-25T04:39:08;8.40;99.90
19945;DHT22;10134;50.952;6.930;2023-04-25T04:41:42;8.40;99.90
19945;DHT22;10134;50.952;6.930;2023-04-25T04:44:29;8.30;99.90
19945;DHT22;10134;50.952;6.930;2023-04-25T04:47:13;8.30;99.90
19945;DHT22;10134;50.952;6.930;2023-04-25T04:49:59;8.30;99.90
19945;DHT22;10134;50.952;6.930;2023-04-25T04:52:39;8.30;99.90
19945;DHT22;10134;50.952;6.930;2023-04-25T04:55:41;8.40;99.90
19945;DHT22;10134;50.952;6.930;2023-04-25T04:58:36;8.40;99.90
19945;DHT22;10134;50.952;6.930;2023-04-25T05:01:25;8.40;99.90
19945;DHT22;10134;50.952;6.930;2023-04-25T05:04:16;8.40;99.90
19945;DHT22;10134;50.952;6.930;2023-04-25T05:06:58;8.50;99.90
19945;DHT22;10134;50.952;6.930;2023-04-25T05:09:26;8.50;99.90
19945;DHT22;10134;50.952;6.930;2023-04-25T05:12:11;8.50;99.90
19945;DHT22;10134;50.952;6.930;2023-04-25T05:14:59;8.60;99.90
19945;DHT22;10134;50.952;6.930;2023-04-25T05:17:36;8.60;99.90
19945;DHT22;10134;50.952;6.930;2023-04-25T05:20:23;8.60;99.90
19945;DHT22;10134;50.952;6.930;2023-04-25T05:23:11;8.70;99.90
19945;DHT22;10134;50.952;6.930;2023-04-25T05:25:54;8.60;99.90
19945;DHT22;10134;50.952;6.930;2023-04-25T05:28:31;8.60;99.90
19945;DHT22;10134;50.952;6.930;2023-04-25T05:31:16;8.60;99.90
19945;DHT22;10134;50.952;6.930;2023-04-25T05:33:50;8.60;99.90
19945;DHT22;10134;50.952;6.930;2023-04-25T05:36:19;8.60;99.90
19945;DHT22;10134;50.952;6.930;2023-04-25T05:38:47;8.70;99.90
19945;DHT22;10134;50.952;6.930;2023-04-25T05:41:14;8.70;99.90
19945;DHT22;10134;50.952;6.930;2023-04-25T05:43:54;8.60;99.90
19945;DHT22;10134;50.952;6.930;2023-04-25T05:46:42;8.60;99.90
19945;DHT22;10134;50.952;6.930;2023-04-25T05:49:30;8.70;99.90
19945;DHT22;10134;50.952;6.930;2023-04-25T05:52:30;8.80;99.90
19945;DHT22;10134;50.952;6.930;2023-04-25T05:55:11;8.80;99.90
19945;DHT22;10134;50.952;6.930;2023-04-25T05:57:38;8.90;99.90
19945;DHT22;10134;50.952;6.930;2023-04-25T06:00:09;8.80;99.90
19945;DHT22;10134;50.952;6.930;2023-04-25T06:02:40;8.80;99.90
19945;DHT22;10134;50.952;6.930;2023-04-25T06:05:09;8.80;99.90
19945;DHT22;10134;50.952;6.930;2023-04-25T06:07:37;8.80;99.90
19945;DHT22;10134;50.952;6.930;2023-04-25T06:10:05;8.80;99.90
19945;DHT22;10134;50.952;6.930;2023-04-25T06:12:33;8.90;99.90
19945;DHT22;10134;50.952;6.930;2023-04-25T06:15:03;9.00;99.90
19945;DHT22;10134;50.952;6.930;2023-04-25T06:17:39;9.00;99.90
19945;DHT22;10134;50.952;6.930;2023-04-25T06:20:07;9.10;99.90
19945;DHT22;10134;50.952;6.930;2023-04-25T06:22:35;9.20;99.90
19945;DHT22;10134;50.952;6.930;2023-04-25T06:25:02;9.40;99.90
19945;DHT22;10134;50.952;6.930;2023-04-25T06:27:33;9.50;99.90
19945;DHT22;10134;50.952;6.930;2023-04-25T06:30:02;9.60;99.90
19945;DHT22;10134;50.952;6.930;2023-04-25T06:32:31;9.70;99.90
19945;DHT22;10134;50.952;6.930;2023-04-25T06:35:00;9.70;99.90
19945;DHT22;10134;50.952;6.930;2023-04-25T06:37:30;9.70;99.90
19945;DHT22;10134;50.952;6.930;2023-04-25T06:39:59;9.70;99.90
19945;DHT22;10134;50.952;6.930;2023-04-25T06:42:27;9.70;99.90
19945;DHT22;10134;50.952;6.930;2023-04-25T06:44:58;9.70;99.90
19945;DHT22;10134;50.952;6.930;2023-04-25T06:47:28;9.70;99.90
19945;DHT22;10134;50.952;6.930;2023-04-25T06:49:56;9.80;99.90
19945;DHT22;10134;50.952;6.930;2023-04-25T06:52:24;9.70;99.90
19945;DHT22;10134;50.952;6.930;2023-04-25T06:54:53;9.80;99.90
19945;DHT22;10134;50.952;6.930;2023-04-25T06:57:56;9.90;99.90
19945;DHT22;10134;50.952;6.930;2023-04-25T07:00:46;10.00;99.90
19945;DHT22;10134;50.952;6.930;2023-04-25T07:03:14;10.10;99.90
19945;DHT22;10134;50.952;6.930;2023-04-25T07:05:42;10.10;99.90
19945;DHT22;10134;50.952;6.930;2023-04-25T07:08:09;10.20;99.90
19945;DHT22;10134;50.952;6.930;2023-04-25T07:10:37;10.30;99.90
19945;DHT22;10134;50.952;6.930;2023-04-25T07:13:04;10.30;99.90
19945;DHT22;10134;50.952;6.930;2023-04-25T07:15:32;10.40;99.90
19945;DHT22;10134;50.952;6.930;2023-04-25T07:18:00;10.50;99.90
19945;DHT22;10134;50.952;6.930;2023-04-25T07:20:28;10.60;99.90
19945;DHT22;10134;50.952;6.930;2023-04-25T07:22:56;10.60;99.90
19945;DHT22;10134;50.952;6.930;2023-04-25T07:25:23;10.60;99.90
19945;DHT22;10134;50.952;6.930;2023-04-25T07:27:51;10.70;99.90
19945;DHT22;10134;50.952;6.930;2023-04-25T07:30:21;10.70;99.90
19945;DHT22;10134;50.952;6.930;2023-04-25T07:32:49;10.70;99.90
19945;DHT22;10134;50.952;6.930;2023-04-25T07:35:17;10.70;99.90
19945;DHT22;10134;50.952;6.930;2023-04-25T07:37:45;10.70;99.90
19945;DHT22;10134;50.952;6.930;2023-04-25T07:40:15;10.70;99.90
19945;DHT22;10134;50.952;6.930;2023-04-25T07:42:47;10.70;99.90
19945;DHT22;10134;50.952;6.930;2023-04-25T07:45:19;10.90;99.90
19945;DHT22;10134;50.952;6.930;2023-04-25T07:47:47;10.90;99.90
19945;DHT22;10134;50.952;6.930;2023-04-25T07:50:14;10.90;99.90
19945;DHT22;10134;50.952;6.930;2023-04-25T07:52:41;11.00;99.90
19945;DHT22;10134;50.952;6.930;2023-04-25T07:55:18;11.00;99.90
19945;DHT22;10134;50.952;6.930;2023-04-25T07:57:57;11.00;99.90
19945;DHT22;10134;50.952;6.930;2023-04-25T08:00:29;11.10;99.90
19945;DHT22;10134;50.952;6.930;2023-04-25T08:03:16;11.00;99.90
19945;DHT22;10134;50.952;6.930;2023-04-25T08:05:44;11.10;99.90
19945;DHT22;10134;50.952;6.930;2023-04-25T08:08:13;11.10;99.90
19945;DHT22;10134;50.952;6.930;2023-04-25T08:10:41;11.20;99.90
19945;DHT22;10134;50.952;6.930;2023-04-25T08:13:09;11.20;99.90
19945;DHT22;10134;50.952;6.930;2023-04-25T08:15:37;11.20;99.90
19945;DHT22;10134;50.952;6.930;2023-04-25T08:18:04;11.20;99.90
19945;DHT22;10134;50.952;6.930;2023-04-25T08:20:32;11.30;99.90
19945;DHT22;10134;50.952;6.930;2023-04-25T08:23:02;11.40;99.90
19945;DHT22;10134;50.952;6.930;2023-04-25T08:25:49;11.40;99.90
19945;DHT22;10134;50.952;6.930;2023-04-25T08:28:20;11.40;99.90
19945;DHT22;10134;50.952;6.930;2023-04-25T08:30:48;11.40;99.90
19945;DHT22;10134;50.952;6.930;2023-04-25T08:33:17;11.40;99.90
19945;DHT22;10134;50.952;6.930;2023-04-25T08:35:57;11.40;99.90
19945;DHT22;10134;50.952;6.930;2023-04-25T08:38:25;11.30;99.90
19945;DHT22;10134;50.952;6.930;2023-04-25T08:40:54;11.30;99.90
19945;DHT22;10134;50.952;6.930;2023-04-25T08:43:23;11.20;99.60
19945;DHT22;10134;50.952;6.930;2023-04-25T08:45:53;11.20;99.90
19945;DHT22;10134;50.952;6.930;2023-04-25T08:48:42;11.30;99.70
19945;DHT22;10134;50.952;6.930;2023-04-25T08:51:25;11.40;99.90
19945;DHT22;10134;50.952;6.930;2023-04-25T08:53:56;11.50;99.80
19945;DHT22;10134;50.952;6.930;2023-04-25T08:56:36;11.60;99.50
19945;DHT22;10134;50.952;6.930;2023-04-25T08:59:03;11.50;98.20
19945;DHT22;10134;50.952;6.930;2023-04-25T09:01:31;11.40;97.50
19945;DHT22;10134;50.952;6.930;2023-04-25T09:03:58;11.50;97.50
19945;DHT22;10134;50.952;6.930;2023-04-25T09:06:28;11.60;98.00
19945;DHT22;10134;50.952;6.930;2023-04-25T09:09:04;11.60;96.50
19945;DHT22;10134;50.952;6.930;2023-04-25T09:11:33;11.50;96.70
19945;DHT22;10134;50.952;6.930;2023-04-25T09:14:15;11.60;96.50
19945;DHT22;10134;50.952;6.930;2023-04-25T09:17:04;11.50;96.30
19945;DHT22;10134;50.952;6.930;2023-04-25T09:20:08;11.50;96.80
19945;DHT22;10134;50.952;6.930;2023-04-25T09:22:36;11.50;97.40
19945;DHT22;10134;50.952;6.930;2023-04-25T09:25:09;11.50;97.40
19945;DHT22;10134;50.952;6.930;2023-04-25T09:27:53;11.60;97.90
19945;DHT22;10134;50.952;6.930;2023-04-25T09:30:33;11.70;97.50
19945;DHT22;10134;50.952;6.930;2023-04-25T09:33:10;11.80;97.40
19945;DHT22;10134;50.952;6.930;2023-04-25T09:35:42;11.80;96.40
19945;DHT22;10134;50.952;6.930;2023-04-25T09:38:18;11.80;96.10
19945;DHT22;10134;50.952;6.930;2023-04-25T09:41:23;11.90;95.40
19945;DHT22;10134;50.952;6.930;2023-04-25T09:43:51;11.80;93.70
19945;DHT22;10134;50.952;6.930;2023-04-25T09:46:19;11.80;94.30
19945;DHT22;10134;50.952;6.930;2023-04-25T09:48:52;11.80;94.60
19945;DHT22;10134;50.952;6.930;2023-04-25T09:51:28;11.80;94.20
19945;DHT22;10134;50.952;6.930;2023-04-25T09:53:59;11.90;93.90
19945;DHT22;10134;50.952;6.930;2023-04-25T09:56:36;11.80;93.30
19945;DHT22;10134;50.952;6.930;2023-04-25T09:59:07;11.80;93.30
19945;DHT22;10134;50.952;6.930;2023-04-25T10:01:38;11.80;92.80
19945;DHT22;10134;50.952;6.930;2023-04-25T10:04:12;11.80;93.30
19945;DHT22;10134;50.952;6.930;2023-04-25T10:06:56;11.70;93.10
19945;DHT22;10134;50.952;6.930;2023-04-25T10:09:26;11.70;93.00
19945;DHT22;10134;50.952;6.930;2023-04-25T10:11:54;11.70;93.10
19945;DHT22;10134;50.952;6.930;2023-04-25T10:14:23;11.60;93.30
19945;DHT22;10134;50.952;6.930;2023-04-25T10:16:51;11.50;93.20
19945;DHT22;10134;50.952;6.930;2023-04-25T10:19:21;11.60;93.70
19945;DHT22;10134;50.952;6.930;2023-04-25T10:21:55;11.60;93.80
19945;DHT22;10134;50.952;6.930;2023-04-25T10:24:24;11.60;92.70
19945;DHT22;10134;50.952;6.930;2023-04-25T10:26:52;11.50;92.50
19945;DHT22;10134;50.952;6.930;2023-04-25T10:29:24;11.50;92.40
19945;DHT22;10134;50.952;6.930;2023-04-25T10:31:52;11.40;92.30
19945;DHT22;10134;50.952;6.930;2023-04-25T10:34:24;11.30;92.70
19945;DHT22;10134;50.952;6.930;2023-04-25T10:36:53;11.40;93.10
19945;DHT22;10134;50.952;6.930;2023-04-25T10:39:26;11.50;93.00
19945;DHT22;10134;50.952;6.930;2023-04-25T10:41:57;11.50;92.00
19945;DHT22;10134;50.952;6.930;2023-04-25T10:44:29;11.60;91.90
19945;DHT22;10134;50.952;6.930;2023-04-25T10:46:58;11.60;90.90
19945;DHT22;10134;50.952;6.930;2023-04-25T10:49:33;11.60;90.50
19945;DHT22;10134;50.952;6.930;2023-04-25T10:54:43;11.40;90.50
19945;DHT22;10134;50.952;6.930;2023-04-25T10:57:43;11.50;90.90
19945;DHT22;10134;50.952;6.930;2023-04-25T11:00:20;11.50;90.60
19945;DHT22;10134;50.952;6.930;2023-04-25T11:03:00;11.50;90.70
19945;DHT22;10134;50.952;6.930;2023-04-25T11:05:33;11.40;90.60
19945;DHT22;10134;50.952;6.930;2023-04-25T11:08:24;11.40;91.10
19945;DHT22;10134;50.952;6.930;2023-04-25T11:10:57;11.40;91.30
19945;DHT22;10134;50.952;6.930;2023-04-25T11:13:29;11.40;91.10
19945;DHT22;10134;50.952;6.930;2023-04-25T11:15:57;11.40;90.80
19945;DHT22;10134;50.952;6.930;2023-04-25T11:18:42;11.40;90.60
19945;DHT22;10134;50.952;6.930;2023-04-25T11:21:11;11.50;91.40
19945;DHT22;10134;50.952;6.930;2023-04-25T11:23:38;11.50;90.30
19945;DHT22;10134;50.952;6.930;2023-04-25T11:26:06;11.70;90.40
19945;DHT22;10134;50.952;6.930;2023-04-25T11:28:34;11.70;90.20
19945;DHT22;10134;50.952;6.930;2023-04-25T11:31:03;11.70;87.40
19945;DHT22;10134;50.952;6.930;2023-04-25T11:33:31;11.80;87.90
19945;DHT22;10134;50.952;6.930;2023-04-25T11:35:58;11.80;88.30
19945;DHT22;10134;50.952;6.930;2023-04-25T11:38:27;11.80;88.30
19945;DHT22;10134;50.952;6.930;2023-04-25T11:41:14;11.90;89.00
19945;DHT22;10134;50.952;6.930;2023-04-25T11:43:43;12.10;89.10
19945;DHT22;10134;50.952;6.930;2023-04-25T11:46:10;12.20;88.90
19945;DHT22;10134;50.952;6.930;2023-04-25T11:48:42;12.30;89.70
19945;DHT22;10134;50.952;6.930;2023-04-25T11:51:18;12.40;88.00
19945;DHT22;10134;50.952;6.930;2023-04-25T11:53:45;12.40;87.10
19945;DHT22;10134;50.952;6.930;2023-04-25T11:56:13;12.50;85.20
19945;DHT22;10134;50.952;6.930;2023-04-25T11:59:02;12.50;83.80
19945;DHT22;10134;50.952;6.930;2023-04-25T12:01:32;12.60;81.70
19945;DHT22;10134;50.952;6.930;2023-04-25T12:04:16;12.60;81.50
19945;DHT22;10134;50.952;6.930;2023-04-25T12:06:45;12.60;80.50
19945;DHT22;10134;50.952;6.930;2023-04-25T12:09:19;12.60;80.70
19945;DHT22;10134;50.952;6.930;2023-04-25T12:11:55;12.70;79.40
19945;DHT22;10134;50.952;6.930;2023-04-25T12:14:27;12.70;76.70
19945;DHT22;10134;50.952;6.930;2023-04-25T12:16:57;12.70;75.40
19945;DHT22;10134;50.952;6.930;2023-04-25T12:19:26;12.80;74.70
19945;DHT22;10134;50.952;6.930;2023-04-25T12:21:58;12.90;74.00
19945;DHT22;10134;50.952;6.930;2023-04-25T12:24:27;13.00;72.30
19945;DHT22;10134;50.952;6.930;2023-04-25T12:29:28;13.20;71.80
19945;DHT22;10134;50.952;6.930;2023-04-25T12:32:08;13.20;72.60
19945;DHT22;10134;50.952;6.930;2023-04-25T12:34:35;13.40;74.20
19945;DHT22;10134;50.952;6.930;2023-04-25T12:37:03;13.40;73.20
19945;DHT22;10134;50.952;6.930;2023-04-25T12:39:30;13.40;73.40
19945;DHT22;10134;50.952;6.930;2023-04-25T12:41:57;13.40;74.00
19945;DHT22;10134;50.952;6.930;2023-04-25T12:44:26;13.50;73.70
19945;DHT22;10134;50.952;6.930;2023-04-25T12:46:53;13.40;72.60
19945;DHT22;10134;50.952;6.930;2023-04-25T12:49:22;13.50;73.50
19945;DHT22;10134;50.952;6.930;2023-04-25T12:51:49;13.50;73.30
19945;DHT22;10134;50.952;6.930;2023-04-25T12:54:18;13.50;74.80
19945;DHT22;10134;50.952;6.930;2023-04-25T12:56:46;13.50;74.20
19945;DHT22;10134;50.952;6.930;2023-04-25T12:59:13;13.50;74.30
19945;DHT22;10134;50.952;6.930;2023-04-25T13:01:41;13.50;75.30
19945;DHT22;10134;50.952;6.930;2023-04-25T13:04:08;13.50;75.60
19945;DHT22;10134;50.952;6.930;2023-04-25T13:06:35;13.60;76.00
19945;DHT22;10134;50.952;6.930;2023-04-25T13:09:03;13.60;76.10
19945;DHT22;10134;50.952;6.930;2023-04-25T13:11:30;13.60;75.40
19945;DHT22;10134;50.952;6.930;2023-04-25T13:13:58;13.70;75.70
19945;DHT22;10134;50.952;6.930;2023-04-25T13:16:25;13.80;75.60
19945;DHT22;10134;50.952;6.930;2023-04-25T13:18:53;13.90;75.00
19945;DHT22;10134;50.952;6.930;2023-04-25T13:21:23;14.00;75.30
19945;DHT22;10134;50.952;6.930;2023-04-25T13:23:50;14.30;75.00
19945;DHT22;10134;50.952;6.930;2023-04-25T13:26:18;14.40;72.00
19945;DHT22;10134;50.952;6.930;2023-04-25T13:28:45;14.60;69.30
19945;DHT22;10134;50.952;6.930;2023-04-25T13:31:12;14.80;69.00
19945;DHT22;10134;50.952;6.930;2023-04-25T13:33:41;15.10;69.70
19945;DHT22;10134;50.952;6.930;2023-04-25T13:36:08;15.50;69.10
19945;DHT22;10134;50.952;6.930;2023-04-25T13:38:35;15.90;67.00
19945;DHT22;10134;50.952;6.930;2023-04-25T13:41:02;16.40;64.00
19945;DHT22;10134;50.952;6.930;2023-04-25T13:43:30;16.50;62.60
19945;DHT22;10134;50.952;6.930;2023-04-25T13:45:59;16.60;62.20
19945;DHT22;10134;50.952;6.930;2023-04-25T13:48:26;16.90;62.90
19945;DHT22;10134;50.952;6.930;2023-04-25T13:50:54;17.40;63.40
19945;DHT22;10134;50.952;6.930;2023-04-25T13:53:21;17.60;60.90
19945;DHT22;10134;50.952;6.930;2023-04-25T13:55:48;18.00;61.90
19945;DHT22;10134;50.952;6.930;2023-04-25T13:58:16;18.50;58.80
19945;DHT22;10134;50.952;6.930;2023-04-25T14:00:43;18.90;58.20
19945;DHT22;10134;50.952;6.930;2023-04-25T14:03:12;19.20;54.20
19945;DHT22;10134;50.952;6.930;2023-04-25T14:05:40;19.50;54.30
19945;DHT22;10134;50.952;6.930;2023-04-25T14:08:09;19.70;53.50
19945;DHT22;10134;50.952;6.930;2023-04-25T14:10:37;20.00;52.70
19945;DHT22;10134;50.952;6.930;2023-04-25T14:13:05;20.40;52.80
19945;DHT22;10134;50.952;6.930;2023-04-25T14:15:34;20.80;51.90
19945;DHT22;10134;50.952;6.930;2023-04-25T14:18:02;21.30;51.50
19945;DHT22;10134;50.952;6.930;2023-04-25T14:20:29;21.70;51.50
19945;DHT22;10134;50.952;6.930;2023-04-25T14:22:57;22.00;50.60
19945;DHT22;10134;50.952;6.930;2023-04-25T14:25:25;22.00;51.80
19945;DHT22;10134;50.952;6.930;2023-04-25T14:27:53;22.00;52.00
19945;DHT22;10134;50.952;6.930;2023-04-25T14:30:21;22.20;52.50
19945;DHT22;10134;50.952;6.930;2023-04-25T14:32:49;22.40;52.40
19945;DHT22;10134;50.952;6.930;2023-04-25T14:35:17;22.90;52.20
19945;DHT22;10134;50.952;6.930;2023-04-25T14:37:45;23.80;52.10
19945;DHT22;10134;50.952;6.930;2023-04-25T14:40:13;24.20;49.70
19945;DHT22;10134;50.952;6.930;2023-04-25T14:42:42;23.70;48.10
19945;DHT22;10134;50.952;6.930;2023-04-25T14:45:10;23.00;46.10
19945;DHT22;10134;50.952;6.930;2023-04-25T14:47:37;22.20;47.00
19945;DHT22;10134;50.952;6.930;2023-04-25T14:50:06;21.60;48.30
19945;DHT22;10134;50.952;6.930;2023-04-25T14:52:34;21.40;49.00
19945;DHT22;10134;50.952;6.930;2023-04-25T14:55:02;20.90;49.40
19945;DHT22;10134;50.952;6.930;2023-04-25T14:57:34;20.40;50.50
19945;DHT22;10134;50.952;6.930;2023-04-25T15:00:03;19.80;50.40
19945;DHT22;10134;50.952;6.930;2023-04-25T15:02:32;19.50;51.00
19945;DHT22;10134;50.952;6.930;2023-04-25T15:04:59;19.20;52.10
19945;DHT22;10134;50.952;6.930;2023-04-25T15:07:27;19.00;52.10
19945;DHT22;10134;50.952;6.930;2023-04-25T15:09:55;18.90;52.70
19945;DHT22;10134;50.952;6.930;2023-04-25T15:12:23;18.90;52.60
19945;DHT22;10134;50.952;6.930;2023-04-25T15:14:52;18.80;51.90
19945;DHT22;10134;50.952;6.930;2023-04-25T15:17:20;18.50;52.40
19945;DHT22;10134;50.952;6.930;2023-04-25T15:19:47;18.10;52.70
19945;DHT22;10134;50.952;6.930;2023-04-25T15:22:14;17.70;53.50
19945;DHT22;10134;50.952;6.930;2023-04-25T15:24:41;17.50;53.40
19945;DHT22;10134;50.952;6.930;2023-04-25T15:27:09;17.40;53.40
19945;DHT22;10134;50.952;6.930;2023-04-25T15:29:36;17.30;53.50
19945;DHT22;10134;50.952;6.930;2023-04-25T15:32:03;17.40;54.50
19945;DHT22;10134;50.952;6.930;2023-04-25T15:34:31;17.30;54.70
19945;DHT22;10134;50.952;6.930;2023-04-25T15:37:00;17.30;54.90
19945;DHT22;10134;50.952;6.930;2023-04-25T15:39:27;17.40;54.00
19945;DHT22;10134;50.952;6.930;2023-04-25T15:41:55;17.70;54.20
19945;DHT22;10134;50.952;6.930;2023-04-25T15:44:23;18.00;54.80
19945;DHT22;10134;50.952;6.930;2023-04-25T15:46:50;18.30;54.80
19945;DHT22;10134;50.952;6.930;2023-04-25T15:49:21;18.10;54.00
19945;DHT22;10134;50.952;6.930;2023-04-25T15:51:49;17.90;55.40
19945;DHT22;10134;50.952;6.930;2023-04-25T15:54:17;17.70;55.00
19945;DHT22;10134;50.952;6.930;2023-04-25T15:56:44;17.50;54.40
19945;DHT22;10134;50.952;6.930;2023-04-25T15:59:12;17.30;55.50
19945;DHT22;10134;50.952;6.930;2023-04-25T16:01:39;17.00;55.60
19945;DHT22;10134;50.952;6.930;2023-04-25T16:04:07;16.60;56.20
19945;DHT22;10134;50.952;6.930;2023-04-25T16:06:35;16.20;56.70